EPKT Airport Information

Runway Information
Runway 09 Length 10499 ft width 147 ft Elevation 970 ft Threshold N/A Heading 90
Runway 27 Length 10499 ft Width 147 ft Elevation 994 ft Threshold 1045 ft Heading 270
Airport Frequencies
Type APP Name APP Frequency 121.075 MHZ
Type GCCD Name HANDLING Frequency 131.45 MHZ
Type TWR Name TWR Frequency 129.25 MHZ
Airport Navaids
Type NDB Name Katowice Frequency 285 KHZ
Airport Weather Information & NOTAM
ADDS - METARS form results

(2334 UTC 12 January 2023)
Data provider http://aviationweather.gov/metar/data/
 
METAR text: EPKT 122330Z 20012KT 9999 OVC036 06/03 Q1013
Conditions at: EPKT (KATOWICE/PYRZOWI, PL) observed 2330 UTC 12 January 2023
Temperature: 6.0°C (43°F)
Dewpoint: 3.0°C (37°F) [RH = 81%]
Pressure (altimeter): 29.91 inches Hg (1013.0 mb)
Winds: from the SSW (200 degrees) at 14 MPH (12 knots; 6.2 m/s)
Visibility: 6 or more miles (10+ km)
Ceiling: 3600 feet AGL
Clouds: overcast cloud deck at 3600 feet AGL
Weather: no significant weather observed at this time

METAR text: EPKT 122300Z 21011KT CAVOK 05/03 Q1013
Conditions at: EPKT (KATOWICE/PYRZOWI, PL) observed 2300 UTC 12 January 2023
Temperature: 5.0°C (41°F)
Dewpoint: 3.0°C (37°F) [RH = 87%]
Pressure (altimeter): 29.91 inches Hg (1013.0 mb)
Winds: from the SSW (210 degrees) at 13 MPH (11 knots; 5.7 m/s)
Visibility: 6 or more miles (10+ km)
Ceiling: ceiling and visibility are OK
Clouds: unknown
Weather: no significant weather observed at this time

Forecast for: EPKT (KATOWICE/PYRZOWI, PL)
Text: TAF EPKT 122330Z 1300/1324 21011KT CAVOK
Forecast period: 0000 UTC 13 January 2023 to 0000 UTC 14 January 2023
Forecast type: FROM: standard forecast or significant change
Winds: from the SSW (210 degrees) at 13 MPH (11 knots; 5.7 m/s)
Visibility: 6 or more miles (10+ km)
Ceiling: unknown
Clouds: missing
Weather: NSW  (no significant weather)
Text: TEMPO 1300/1318 21015G25KT
Forecast period: 0000 to 1800 UTC 13 January 2023
Forecast type: TEMPORARY: The following changes expected for less than half the time period
Winds: from the SSW (210 degrees) at 17 MPH (15 knots; 7.7 m/s)
gusting to 29 MPH (25 knots; 12.9 m/s)
Visibility: missing
Ceiling: unknown
Clouds: missing
Weather: no significant weather forecast for this period
Text: PROB40
Forecast period: 1000 to 2100 UTC 13 January 2023
Forecast type: TEMPORARY: The following changes expected for less than half the time period
Visibility: missing
Ceiling: 1300 feet AGL
Clouds: broken clouds at 1300 feet AGL
Weather: -RA  (light rain)